Time;durP1;ratioP1;P1;durP2;ratioP2;P2;SDS_P1;SDS_P2;PMS_P1;PMS_P2;Temp;Humidity;BMP_temperature;BMP_pressure;BME280_temperature;BME280_humidity;BME280_pressure;Samples;Min_cycle;Max_cycle;Signal;HPM_P1;HPM_P2
2021/09/03 00:01:00;;;;;;;6.82;6.07;;;;;;;16.88;63.82;97746.25;4935027;29;20035;-79
2021/09/03 00:03:25;;;;;;;8.25;5.32;;;;;;;16.91;63.58;97739.66;4903326;28;20032;-79
2021/09/03 00:05:50;;;;;;;6.00;5.45;;;;;;;16.91;63.72;97740.44;4918160;29;20518;-79
2021/09/03 00:08:16;;;;;;;7.25;5.45;;;;;;;16.98;63.81;97751.47;4900923;29;20158;-79
2021/09/03 00:10:41;;;;;;;6.85;6.10;;;;;;;16.93;63.68;97734.91;4900328;29;20027;-79
2021/09/03 00:13:06;;;;;;;7.90;6.32;;;;;;;16.87;64.06;97728.13;4932916;29;20039;-79
2021/09/03 00:15:32;;;;;;;7.88;5.88;;;;;;;16.90;64.06;97725.72;4914143;29;20106;-79
2021/09/03 00:17:59;;;;;;;8.32;6.30;;;;;;;16.84;64.01;97724.97;4945796;29;20023;-79
2021/09/03 00:20:25;;;;;;;8.32;6.07;;;;;;;16.89;63.90;97721.50;4934918;29;20039;-79
2021/09/03 00:22:50;;;;;;;7.88;6.18;;;;;;;16.90;64.01;97714.44;4901398;29;20039;-79
2021/09/03 00:25:15;;;;;;;6.55;5.60;;;;;;;16.93;63.97;97725.19;4919379;29;20129;-79
2021/09/03 00:27:41;;;;;;;8.77;6.15;;;;;;;16.89;64.12;97720.75;4934735;29;20475;-79
2021/09/03 00:30:07;;;;;;;7.97;6.15;;;;;;;16.78;64.08;97719.97;4934864;29;20110;-79
2021/09/03 00:32:33;;;;;;;7.90;6.13;;;;;;;16.71;64.26;97711.59;4918478;29;20027;-79
2021/09/03 00:34:58;;;;;;;9.43;6.28;;;;;;;16.70;64.70;97712.66;4919148;29;20482;-79
2021/09/03 00:37:23;;;;;;;8.18;6.45;;;;;;;16.58;64.66;97713.75;4935255;29;20031;-79
2021/09/03 00:39:49;;;;;;;8.98;6.40;;;;;;;16.55;64.66;97716.13;4933492;29;20525;-80
2021/09/03 00:42:15;;;;;;;7.65;6.70;;;;;;;16.45;64.85;97711.69;4902774;29;20027;-79
2021/09/03 00:44:41;;;;;;;9.63;6.45;;;;;;;16.42;65.12;97715.66;4934169;29;20189;-79
2021/09/03 00:47:06;;;;;;;8.43;6.18;;;;;;;16.33;65.26;97716.47;4919019;29;20439;-79
2021/09/03 00:49:32;;;;;;;7.43;6.47;;;;;;;16.18;65.47;97706.81;4934268;29;20067;-79
2021/09/03 00:51:58;;;;;;;7.53;6.10;;;;;;;16.14;65.79;97706.53;4917990;29;20031;-79
2021/09/03 00:54:24;;;;;;;8.35;6.20;;;;;;;16.12;65.50;97697.34;4920570;28;20089;-79
2021/09/03 00:56:50;;;;;;;7.25;6.40;;;;;;;16.06;65.67;97701.84;4953506;28;20615;-79
2021/09/03 00:59:16;;;;;;;9.95;6.85;;;;;;;15.96;65.67;97704.50;4937524;28;20486;-79
2021/09/03 01:01:43;;;;;;;8.48;6.40;;;;;;;15.81;66.31;97703.44;4936939;29;20035;-79
2021/09/03 01:04:08;;;;;;;8.18;6.45;;;;;;;15.73;66.02;97691.63;4918821;29;20042;-79
2021/09/03 01:06:34;;;;;;;8.60;6.13;;;;;;;15.74;66.17;97695.03;4918397;29;20407;-79
2021/09/03 01:08:59;;;;;;;9.00;6.13;;;;;;;15.73;66.26;97698.72;4950267;29;20075;-79
2021/09/03 01:11:24;;;;;;;8.75;6.70;;;;;;;15.66;66.06;97688.50;4951080;29;20027;-79
2021/09/03 01:13:50;;;;;;;9.45;6.45;;;;;;;15.62;65.85;97686.66;4917721;29;20028;-79
2021/09/03 01:16:16;;;;;;;8.70;6.32;;;;;;;15.63;66.19;97685.63;4903114;29;20466;-79
2021/09/03 01:18:41;;;;;;;7.82;5.80;;;;;;;15.63;65.82;97680.38;4951024;29;20492;-79
2021/09/03 01:21:07;;;;;;;7.13;5.82;;;;;;;15.66;65.91;97679.81;4933583;29;20039;-79
2021/09/03 01:23:32;;;;;;;9.02;6.78;;;;;;;15.65;65.76;97673.78;4898874;29;20126;-79
2021/09/03 01:26:01;;;;;;;11.23;6.97;;;;;;;15.58;66.75;97677.75;4927090;28;20034;-79
2021/09/03 01:28:26;;;;;;;8.75;6.18;;;;;;;15.77;65.92;97678.78;4912901;29;20114;-79
2021/09/03 01:30:51;;;;;;;9.23;7.07;;;;;;;15.67;66.67;97676.16;4902013;29;20239;-79
2021/09/03 01:33:17;;;;;;;9.40;6.78;;;;;;;15.64;66.71;97684.53;4918084;29;20035;-79
2021/09/03 01:35:42;;;;;;;9.00;6.75;;;;;;;15.55;66.49;97694.78;4918528;29;20031;-79
2021/09/03 01:38:08;;;;;;;8.40;6.50;;;;;;;15.51;66.59;97688.50;4934017;29;20163;-79
2021/09/03 01:40:33;;;;;;;9.68;6.78;;;;;;;15.53;66.16;97687.19;4898990;29;20051;-79
2021/09/03 01:43:01;;;;;;;8.77;6.50;;;;;;;15.38;66.33;97676.69;4893274;29;20039;-79
2021/09/03 01:45:27;;;;;;;9.00;6.50;;;;;;;15.43;66.02;97681.16;4952442;29;20035;-79
2021/09/03 01:47:52;;;;;;;8.15;5.97;;;;;;;15.39;66.37;97674.84;4918573;29;20028;-79
2021/09/03 01:50:17;;;;;;;10.88;6.95;;;;;;;15.35;66.43;97666.72;4933320;29;20488;-79
2021/09/03 01:52:43;;;;;;;7.95;7.07;;;;;;;15.42;66.83;97674.31;4927656;29;20113;-79
2021/09/03 01:55:08;;;;;;;8.95;6.93;;;;;;;15.33;66.98;97671.44;4914694;29;20050;-79
2021/09/03 01:57:34;;;;;;;8.75;6.63;;;;;;;15.26;67.22;97673.53;4904560;29;20530;-79
2021/09/03 01:59:59;;;;;;;9.88;6.68;;;;;;;15.24;67.08;97673.03;4949357;29;20469;-79
2021/09/03 02:02:24;;;;;;;8.00;5.63;;;;;;;15.28;66.95;97674.84;4901868;29;20028;-79
2021/09/03 02:04:50;;;;;;;8.23;6.00;;;;;;;15.31;66.97;97668.31;4918686;29;20070;-79
2021/09/03 02:07:15;;;;;;;8.35;6.65;;;;;;;15.41;67.19;97676.16;4917416;29;20326;-81
2021/09/03 02:09:40;;;;;;;8.07;6.25;;;;;;;15.46;67.00;97665.66;4908954;29;20093;-79
2021/09/03 02:12:06;;;;;;;7.65;6.15;;;;;;;15.50;66.57;97663.31;4914577;29;20039;-79
2021/09/03 02:14:31;;;;;;;8.07;5.95;;;;;;;15.59;66.17;97668.81;4915924;29;20123;-79
2021/09/03 02:16:57;;;;;;;9.25;6.15;;;;;;;15.59;66.10;97674.06;4900100;29;20027;-79
2021/09/03 02:19:22;;;;;;;7.95;6.20;;;;;;;15.49;66.40;97667.78;4915727;29;20072;-79
2021/09/03 02:21:48;;;;;;;8.30;6.57;;;;;;;15.52;66.33;97664.63;4924363;29;20066;-79
2021/09/03 02:24:13;;;;;;;7.50;5.80;;;;;;;15.52;65.99;97667.25;4933141;29;20045;-79
2021/09/03 02:26:38;;;;;;;6.88;5.90;;;;;;;15.45;66.32;97658.06;4902319;29;20486;-79
2021/09/03 02:29:04;;;;;;;8.63;6.47;;;;;;;15.50;66.10;97674.56;4900632;29;20134;-79
2021/09/03 02:31:29;;;;;;;7.38;5.78;;;;;;;15.44;66.46;97675.66;4892751;29;20467;-79
2021/09/03 02:33:55;;;;;;;8.70;6.15;;;;;;;15.40;66.44;97677.22;4918939;29;20070;-79
2021/09/03 02:36:20;;;;;;;7.90;5.95;;;;;;;15.36;66.53;97676.16;4909185;29;20430;-79
2021/09/03 02:38:54;;;;;;;9.73;6.18;;;;;;;15.23;66.67;97664.34;4945643;29;20442;-79
2021/09/03 02:41:20;;;;;;;7.80;6.72;;;;;;;15.36;66.49;97670.91;4914957;29;20560;-80
2021/09/03 02:43:45;;;;;;;8.98;6.10;;;;;;;15.32;66.38;97662.00;4931969;29;20118;-79
2021/09/03 02:46:10;;;;;;;9.55;7.05;;;;;;;15.42;66.53;97680.38;4915307;29;20061;-79
2021/09/03 02:48:36;;;;;;;8.52;6.50;;;;;;;15.42;66.56;97679.56;4902304;29;20039;-79
2021/09/03 02:51:01;;;;;;;8.27;6.60;;;;;;;15.38;66.66;97671.44;4917620;29;20027;-79
2021/09/03 02:53:26;;;;;;;7.53;6.25;;;;;;;15.34;66.45;97667.78;4934414;29;20501;-79
2021/09/03 02:55:52;;;;;;;7.22;5.88;;;;;;;15.39;66.54;97678.28;4919472;29;20070;-79
2021/09/03 02:58:17;;;;;;;7.72;6.05;;;;;;;15.39;66.53;97666.97;4903234;29;20031;-79
2021/09/03 03:00:42;;;;;;;10.40;6.82;;;;;;;15.19;67.11;97662.53;4924215;29;20051;-79
2021/09/03 03:03:08;;;;;;;7.88;6.45;;;;;;;15.19;66.75;97662.53;4920193;29;20043;-79
2021/09/03 03:05:33;;;;;;;8.13;5.93;;;;;;;15.25;66.55;97662.28;4906821;29;20035;-79
2021/09/03 03:07:59;;;;;;;7.30;5.78;;;;;;;15.22;66.31;97652.31;4907035;29;20602;-79
2021/09/03 03:10:24;;;;;;;7.07;5.57;;;;;;;15.28;66.26;97660.94;4923310;29;20035;-79
2021/09/03 03:12:53;;;;;;;7.57;5.68;;;;;;;15.22;66.03;97654.91;4921580;29;20608;-79
2021/09/03 03:15:19;;;;;;;8.20;6.25;;;;;;;15.26;65.73;97649.94;4924341;29;20031;-79
2021/09/03 03:17:45;;;;;;;5.68;5.05;;;;;;;15.25;65.42;97659.66;4902004;29;20530;-79
2021/09/03 03:20:11;;;;;;;8.35;5.90;;;;;;;15.25;65.41;97661.47;4905036;29;20036;-80
2021/09/03 03:22:37;;;;;;;9.35;5.60;;;;;;;15.22;65.43;97659.38;4942952;29;20046;-79
2021/09/03 03:25:03;;;;;;;8.00;6.10;;;;;;;15.21;65.79;97668.28;4906849;29;20063;-79
2021/09/03 03:27:29;;;;;;;6.85;5.20;;;;;;;15.20;65.65;97662.28;4929757;29;20042;-79
2021/09/03 03:29:54;;;;;;;7.13;5.30;;;;;;;15.15;66.09;97664.91;4954095;29;20031;-80
2021/09/03 03:32:19;;;;;;;9.00;5.93;;;;;;;15.12;66.42;97658.31;4937411;29;20058;-79
2021/09/03 03:34:45;;;;;;;7.70;5.55;;;;;;;15.14;66.61;97653.59;4907049;29;20446;-79
2021/09/03 03:37:10;;;;;;;7.97;6.05;;;;;;;15.12;66.41;97639.97;4922463;29;20241;-79
2021/09/03 03:39:36;;;;;;;6.30;5.50;;;;;;;15.19;66.56;97638.91;4938931;29;20081;-79
2021/09/03 03:42:02;;;;;;;7.38;5.80;;;;;;;15.24;66.77;97655.44;4937371;29;20039;-79
2021/09/03 03:44:27;;;;;;;6.68;5.53;;;;;;;15.26;66.69;97637.59;4921858;29;20035;-79
2021/09/03 03:46:53;;;;;;;8.38;6.03;;;;;;;15.26;66.88;97644.69;4921023;29;20397;-79
2021/09/03 03:49:18;;;;;;;7.63;6.60;;;;;;;15.30;66.85;97650.97;4921245;29;20035;-79
2021/09/03 03:51:43;;;;;;;7.80;6.07;;;;;;;15.29;67.36;97650.19;4916825;29;20047;-79
2021/09/03 03:54:09;;;;;;;8.50;5.90;;;;;;;15.34;67.24;97658.06;4917760;29;20035;-79
2021/09/03 03:56:34;;;;;;;10.32;6.40;;;;;;;15.30;67.28;97638.66;4936786;29;20027;-79
2021/09/03 03:59:00;;;;;;;9.02;6.70;;;;;;;15.36;67.13;97647.31;4921590;29;20387;-79
2021/09/03 04:01:25;;;;;;;8.40;6.63;;;;;;;15.35;67.30;97649.16;4902205;29;20499;-79
2021/09/03 04:03:51;;;;;;;8.20;6.40;;;;;;;15.34;67.34;97654.66;4887331;29;20043;-79
2021/09/03 04:06:18;;;;;;;7.13;6.38;;;;;;;15.32;67.06;97654.13;4903858;29;20042;-79
2021/09/03 04:08:44;;;;;;;7.72;6.63;;;;;;;15.32;66.60;97659.38;4914777;29;20110;-79
2021/09/03 04:11:09;;;;;;;7.30;5.65;;;;;;;15.17;65.93;97647.81;4934037;29;20035;-80
2021/09/03 04:13:34;;;;;;;6.85;6.00;;;;;;;15.08;66.16;97652.03;4917742;29;20479;-80
2021/09/03 04:16:00;;;;;;;7.63;5.75;;;;;;;15.00;66.67;97657.78;4911369;29;20372;-80
2021/09/03 04:18:25;;;;;;;9.77;6.65;;;;;;;14.92;66.87;97651.22;4936681;29;20406;-82
2021/09/03 04:20:51;;;;;;;7.97;6.28;;;;;;;14.82;66.81;97647.78;4936241;29;20071;-79
2021/09/03 04:23:16;;;;;;;7.47;5.63;;;;;;;14.87;66.79;97653.03;4919487;29;20105;-79
2021/09/03 04:25:41;;;;;;;8.63;6.35;;;;;;;14.78;67.94;97643.06;4936625;29;20090;-80
2021/09/03 04:28:07;;;;;;;12.65;8.25;;;;;;;14.78;67.87;97650.16;4953678;29;20038;-79
2021/09/03 04:30:32;;;;;;;9.10;7.00;;;;;;;14.67;67.48;97641.50;4921152;29;20031;-79
2021/09/03 04:32:58;;;;;;;10.95;7.53;;;;;;;14.66;67.92;97645.16;4936775;29;20041;-81
2021/09/03 04:35:24;;;;;;;9.55;7.43;;;;;;;14.60;68.07;97638.34;4921075;29;20062;-79
2021/09/03 04:37:51;;;;;;;9.23;7.13;;;;;;;14.62;67.55;97651.97;4905145;29;20031;-79
2021/09/03 04:40:18;;;;;;;8.10;6.22;;;;;;;14.52;67.73;97646.66;4937093;29;20438;-79
2021/09/03 04:42:45;;;;;;;9.15;6.80;;;;;;;14.55;67.65;97656.63;4936832;29;20557;-79
2021/09/03 04:45:11;;;;;;;8.63;6.43;;;;;;;14.53;67.89;97648.22;4920722;29;20062;-79
2021/09/03 04:47:37;;;;;;;8.45;6.35;;;;;;;14.55;68.10;97643.53;4920740;29;20050;-79
2021/09/03 04:50:05;;;;;;;9.85;7.00;;;;;;;14.59;67.92;97657.72;4906027;29;20528;-80
2021/09/03 04:52:30;;;;;;;7.65;6.15;;;;;;;14.63;68.07;97652.75;4920246;29;20027;-79
2021/09/03 04:54:59;;;;;;;8.93;6.38;;;;;;;14.46;67.95;97643.22;4933672;29;20214;-79
2021/09/03 04:57:24;;;;;;;9.05;6.43;;;;;;;14.65;68.15;97661.13;4935017;29;20061;-79
2021/09/03 04:59:49;;;;;;;9.00;6.70;;;;;;;14.64;68.17;97649.09;4935617;29;20035;-80
2021/09/03 05:02:17;;;;;;;9.50;6.82;;;;;;;14.62;67.88;97649.34;4902632;29;20404;-79
2021/09/03 05:04:43;;;;;;;8.80;6.35;;;;;;;14.67;67.56;97659.03;4918381;29;20046;-79
2021/09/03 05:07:09;;;;;;;9.88;7.90;;;;;;;14.64;67.85;97656.94;4934007;29;20041;-79
2021/09/03 05:09:35;;;;;;;10.82;7.32;;;;;;;14.52;67.67;97641.41;4917978;29;20385;-79
2021/09/03 05:12:00;;;;;;;7.70;6.60;;;;;;;14.66;67.59;97660.88;4933899;29;20027;-79
2021/09/03 05:14:25;;;;;;;9.60;6.80;;;;;;;14.69;67.76;97656.97;4933349;29;20027;-79
2021/09/03 05:16:51;;;;;;;8.52;6.20;;;;;;;14.64;67.75;97654.31;4933658;29;20050;-79
2021/09/03 05:19:16;;;;;;;9.95;6.88;;;;;;;14.74;68.13;97662.22;4934461;29;20509;-79
2021/09/03 05:21:42;;;;;;;9.25;6.35;;;;;;;14.69;67.89;97662.97;4918639;29;20031;-79
2021/09/03 05:24:07;;;;;;;8.07;6.55;;;;;;;14.70;67.68;97659.31;4934144;29;20034;-79
2021/09/03 05:26:33;;;;;;;8.73;6.22;;;;;;;14.76;67.98;97649.63;4937422;28;20037;-79
2021/09/03 05:28:58;;;;;;;9.40;7.57;;;;;;;14.81;68.15;97654.88;4954024;28;20063;-79
2021/09/03 05:31:24;;;;;;;10.95;7.30;;;;;;;14.85;68.37;97663.78;4942185;29;20108;-79
2021/09/03 05:33:49;;;;;;;10.15;8.27;;;;;;;14.87;68.43;97653.81;4934246;29;20038;-79
2021/09/03 05:36:15;;;;;;;11.93;8.35;;;;;;;14.86;68.76;97656.72;4934511;29;20483;-79
2021/09/03 05:38:40;;;;;;;10.73;7.40;;;;;;;15.03;68.61;97669.56;4926538;29;20027;-79
2021/09/03 05:41:05;;;;;;;10.98;7.50;;;;;;;15.12;68.27;97662.78;4918263;29;20035;-79
2021/09/03 05:43:31;;;;;;;8.30;7.07;;;;;;;15.22;67.92;97665.41;4918574;29;20039;-80
2021/09/03 05:45:56;;;;;;;10.90;7.40;;;;;;;15.22;68.36;97662.78;4918176;29;20067;-80
2021/09/03 05:48:22;;;;;;;12.57;7.93;;;;;;;15.17;68.28;97658.31;4931082;29;20428;-79
2021/09/03 05:50:48;;;;;;;10.88;7.88;;;;;;;15.28;68.17;97664.34;4887928;29;20042;-80
2021/09/03 05:53:13;;;;;;;10.52;7.43;;;;;;;15.28;68.19;97653.84;4932243;29;20085;-79
2021/09/03 05:55:38;;;;;;;10.48;7.25;;;;;;;15.39;67.90;97667.78;4918080;29;20442;-80
2021/09/03 05:58:04;;;;;;;12.57;8.55;;;;;;;15.34;68.01;97658.06;4917738;29;20403;-79
2021/09/03 06:00:29;;;;;;;11.35;7.28;;;;;;;15.39;67.88;97654.66;4933689;29;20031;-79
2021/09/03 06:02:54;;;;;;;10.32;7.43;;;;;;;15.38;68.21;97652.28;4917969;29;20066;-79
2021/09/03 06:05:20;;;;;;;10.65;7.25;;;;;;;15.42;68.14;97654.13;4933865;29;20269;-79
2021/09/03 06:07:45;;;;;;;9.30;7.43;;;;;;;15.43;68.14;97655.69;4918030;29;20419;-79
2021/09/03 06:10:11;;;;;;;11.32;7.97;;;;;;;15.45;68.19;97658.84;4902375;29;20039;-79
2021/09/03 06:12:40;;;;;;;9.43;7.07;;;;;;;15.44;68.16;97654.66;4933455;29;20039;-79
2021/09/03 06:15:06;;;;;;;10.40;7.90;;;;;;;15.53;68.35;97657.53;4899974;29;20035;-79
2021/09/03 06:17:32;;;;;;;10.68;7.95;;;;;;;15.61;68.51;97658.81;4909799;29;20390;-78
2021/09/03 06:19:57;;;;;;;11.50;8.63;;;;;;;15.65;68.56;97652.00;4934958;29;20023;-79
2021/09/03 06:22:23;;;;;;;11.73;8.85;;;;;;;15.77;68.52;97655.16;4963845;28;20027;-79
2021/09/03 06:24:49;;;;;;;10.73;7.80;;;;;;;15.98;67.97;97649.84;4901149;29;20046;-79
2021/09/03 06:27:14;;;;;;;10.50;7.82;;;;;;;16.02;67.80;97635.94;4917979;29;20028;-79
2021/09/03 06:29:43;;;;;;;10.25;7.72;;;;;;;16.19;67.76;97637.44;4933665;29;20148;-78
2021/09/03 06:32:13;;;;;;;11.10;8.20;;;;;;;16.36;67.56;97647.63;4917845;29;20046;-79
2021/09/03 06:34:48;;;;;;;10.80;8.38;;;;;;;16.57;67.11;97641.22;4933731;29;20038;-79
2021/09/03 06:37:14;;;;;;;9.25;7.35;;;;;;;16.74;66.90;97642.69;4935728;29;20031;-79
2021/09/03 06:39:40;;;;;;;9.38;6.93;;;;;;;16.91;66.57;97650.22;4937247;29;20054;-79
2021/09/03 06:42:07;;;;;;;9.80;7.50;;;;;;;16.93;66.14;97637.59;4905620;29;20077;-79
2021/09/03 06:44:35;;;;;;;10.48;7.38;;;;;;;17.15;65.61;97653.75;4937012;29;20035;-79
2021/09/03 06:47:02;;;;;;;10.52;7.70;;;;;;;17.38;65.30;97654.88;4914613;29;20023;-80
2021/09/03 06:49:28;;;;;;;12.20;8.13;;;;;;;17.41;65.11;97664.06;4934121;29;20234;-80
2021/09/03 06:51:54;;;;;;;8.93;8.02;;;;;;;17.45;64.75;97654.56;4936276;29;20027;-80
2021/09/03 06:54:19;;;;;;;10.68;6.95;;;;;;;17.50;64.41;97651.88;4905645;29;20046;-79
2021/09/03 06:56:45;;;;;;;10.02;8.02;;;;;;;17.58;64.63;97653.91;4905005;29;20031;-79
2021/09/03 06:59:10;;;;;;;8.70;6.53;;;;;;;17.72;64.46;97661.16;4936990;29;20234;-79
2021/09/03 07:01:36;;;;;;;8.50;6.13;;;;;;;17.79;63.47;97656.34;4936297;29;20110;-80
2021/09/03 07:04:01;;;;;;;8.45;6.07;;;;;;;17.93;63.10;97659.91;4921093;29;20394;-80
2021/09/03 07:06:27;;;;;;;9.90;6.75;;;;;;;18.15;62.86;97656.00;4920651;29;20043;-79
2021/09/03 07:08:52;;;;;;;7.95;6.50;;;;;;;18.27;62.53;97659.00;4920666;29;20038;-79
2021/09/03 07:11:17;;;;;;;8.40;6.78;;;;;;;18.39;62.35;97655.97;4920439;29;20446;-79
2021/09/03 07:13:43;;;;;;;8.07;6.57;;;;;;;18.53;61.81;97654.19;4920596;29;20042;-79
2021/09/03 07:16:08;;;;;;;8.23;6.05;;;;;;;18.71;61.18;97652.63;4936641;29;20097;-79
2021/09/03 07:18:34;;;;;;;9.10;6.15;;;;;;;18.72;61.05;97645.50;4936532;29;20093;-79
2021/09/03 07:20:59;;;;;;;9.60;7.00;;;;;;;18.94;60.41;97663.44;4953661;29;20035;-79
2021/09/03 07:23:24;;;;;;;8.27;6.22;;;;;;;19.07;59.99;97651.34;4920109;29;20046;-79
2021/09/03 07:25:50;;;;;;;7.90;6.20;;;;;;;19.07;59.82;97653.97;4917942;28;20031;-78
2021/09/03 07:28:15;;;;;;;6.90;6.07;;;;;;;19.34;59.62;97660.44;4939806;29;20114;-79
2021/09/03 07:30:41;;;;;;;7.55;6.25;;;;;;;19.63;58.71;97663.63;4919409;29;20035;-78
2021/09/03 07:33:06;;;;;;;7.80;5.88;;;;;;;19.70;58.40;97643.97;4946002;28;20031;-78
2021/09/03 07:35:32;;;;;;;9.27;5.93;;;;;;;19.99;58.24;97656.94;4972720;28;20031;-78
2021/09/03 07:37:57;;;;;;;7.68;6.10;;;;;;;20.10;57.43;97655.69;4923823;28;20054;-79
2021/09/03 07:40:25;;;;;;;10.38;5.50;;;;;;;20.29;57.24;97655.56;4938172;28;20039;-79
2021/09/03 07:42:51;;;;;;;8.30;5.75;;;;;;;20.52;56.78;97645.03;4928021;29;20157;-79
2021/09/03 07:45:17;;;;;;;7.50;6.10;;;;;;;20.82;55.68;97648.94;4949730;28;20046;-79
2021/09/03 07:47:42;;;;;;;7.60;5.85;;;;;;;21.05;55.54;97649.72;4914425;28;20039;-79
2021/09/03 07:50:08;;;;;;;8.23;5.95;;;;;;;20.99;55.13;97640.34;4919546;29;20033;-79
2021/09/03 07:52:34;;;;;;;7.03;5.35;;;;;;;21.25;54.65;97664.34;4919258;29;20062;-78
2021/09/03 07:54:59;;;;;;;6.40;5.43;;;;;;;21.39;54.43;97658.97;4903933;29;20473;-79
2021/09/03 07:57:25;;;;;;;6.53;4.97;;;;;;;21.77;53.68;97657.78;4919198;29;20035;-79
2021/09/03 07:59:51;;;;;;;7.25;5.63;;;;;;;21.97;52.53;97646.63;4919100;29;20031;-79
2021/09/03 08:02:16;;;;;;;8.70;5.10;;;;;;;22.05;51.81;97653.03;4917277;29;20040;-81
2021/09/03 08:04:41;;;;;;;7.43;5.53;;;;;;;21.88;52.03;97656.41;4900213;29;20036;-79
2021/09/03 08:07:07;;;;;;;6.10;4.90;;;;;;;22.18;51.55;97654.81;4917112;29;20506;-81
2021/09/03 08:09:32;;;;;;;5.20;4.60;;;;;;;22.20;51.36;97651.84;4916716;29;20379;-78
2021/09/03 08:11:58;;;;;;;6.53;5.15;;;;;;;22.62;51.48;97650.38;4884205;29;20387;-79
2021/09/03 08:14:23;;;;;;;6.30;5.68;;;;;;;22.41;50.08;97650.22;4900711;29;20130;-80
2021/09/03 08:16:49;;;;;;;6.30;5.20;;;;;;;22.26;50.88;97632.06;4915976;29;20071;-79
2021/09/03 08:19:14;;;;;;;6.78;5.35;;;;;;;22.54;51.16;97635.22;4884233;29;20035;-78
2021/09/03 08:21:40;;;;;;;5.72;5.03;;;;;;;22.75;49.87;97639.91;4912752;29;20031;-79
2021/09/03 08:24:05;;;;;;;7.13;6.43;;;;;;;22.98;49.44;97641.31;4934524;29;20031;-79
2021/09/03 08:26:31;;;;;;;6.22;5.30;;;;;;;22.90;49.24;97638.69;4917567;29;20039;-79
2021/09/03 08:28:56;;;;;;;6.72;5.32;;;;;;;23.24;49.30;97637.09;4900704;29;20415;-79
2021/09/03 08:31:24;;;;;;;8.02;6.75;;;;;;;23.33;49.01;97657.22;4904445;29;20063;-80
2021/09/03 08:33:50;;;;;;;5.82;5.20;;;;;;;23.49;48.32;97627.50;4916429;29;20098;-79
2021/09/03 08:36:16;;;;;;;6.70;5.25;;;;;;;23.63;47.85;97628.09;4915320;29;20495;-78
2021/09/03 08:38:42;;;;;;;6.50;5.28;;;;;;;23.57;47.23;97634.66;4932197;29;20114;-79
2021/09/03 08:41:08;;;;;;;5.50;5.00;;;;;;;23.80;47.11;97639.72;4902946;29;20062;-79
2021/09/03 08:43:33;;;;;;;5.70;5.20;;;;;;;23.91;47.92;97630.34;4918902;29;20039;-80
2021/09/03 08:45:59;;;;;;;5.80;5.07;;;;;;;23.96;47.53;97640.00;4920220;29;20035;-79
2021/09/03 08:48:25;;;;;;;5.60;5.00;;;;;;;23.74;46.57;97641.78;4919620;29;20355;-80
2021/09/03 08:50:55;;;;;;;5.70;5.10;;;;;;;23.68;46.07;97643.06;4925699;29;20055;-79
2021/09/03 08:53:23;;;;;;;6.50;5.15;;;;;;;24.06;45.70;97644.94;4926579;29;20035;-80
2021/09/03 08:55:51;;;;;;;5.80;4.70;;;;;;;24.33;45.74;97634.94;4903077;29;20078;-79
2021/09/03 08:58:16;;;;;;;6.22;4.85;;;;;;;24.38;44.88;97638.19;4918426;29;20049;-79
2021/09/03 09:00:43;;;;;;;5.75;4.78;;;;;;;24.68;45.43;97644.28;4916865;29;20043;-79
2021/09/03 09:03:14;;;;;;;8.85;5.10;;;;;;;24.75;43.10;97643.75;4919714;29;20382;-79
2021/09/03 09:05:47;;;;;;;5.95;4.80;;;;;;;24.39;43.56;97639.00;4934454;29;20039;-80
2021/09/03 09:08:16;;;;;;;5.65;4.85;;;;;;;24.51;44.43;97633.72;4903315;29;20027;-81
2021/09/03 09:10:45;;;;;;;6.18;4.90;;;;;;;24.79;44.80;97639.31;4918769;29;20085;-79
2021/09/03 09:13:19;;;;;;;5.15;4.18;;;;;;;25.15;43.80;97640.56;4924761;29;20039;-79
2021/09/03 09:16:11;;;;;;;6.90;5.32;;;;;;;25.14;41.94;97635.56;4932420;29;20042;-79
2021/09/03 09:18:45;;;;;;;4.72;4.10;;;;;;;25.01;43.33;97643.53;4899453;29;20032;-80
2021/09/03 09:21:20;;;;;;;5.32;4.78;;;;;;;25.19;40.73;97635.38;4890393;29;20028;-79
2021/09/03 09:23:55;;;;;;;5.65;4.53;;;;;;;25.51;42.13;97635.69;4916809;29;20042;-80
2021/09/03 09:26:24;;;;;;;5.47;4.50;;;;;;;25.85;41.62;97629.16;4924725;28;20062;-79
2021/09/03 09:28:50;;;;;;;5.32;3.92;;;;;;;25.82;40.66;97629.81;4902188;29;20063;-79
2021/09/03 09:31:30;;;;;;;5.25;4.53;;;;;;;25.79;40.72;97630.50;4926317;29;20039;-80
2021/09/03 09:33:57;;;;;;;5.10;4.55;;;;;;;25.95;41.32;97634.09;4918319;29;20106;-79
2021/09/03 09:36:23;;;;;;;7.20;4.30;;;;;;;26.27;39.90;97630.81;4930805;29;20043;-79
2021/09/03 09:38:49;;;;;;;4.82;4.05;;;;;;;26.38;39.91;97633.84;4915396;29;20027;-80
2021/09/03 09:41:20;;;;;;;5.13;4.63;;;;;;;26.31;39.93;97634.41;4917462;29;20068;-80
2021/09/03 09:43:46;;;;;;;4.90;4.40;;;;;;;26.71;39.31;97622.97;4902094;29;20031;-79
2021/09/03 09:46:16;;;;;;;4.97;4.45;;;;;;;26.88;37.06;97624.56;4917477;29;20042;-79
2021/09/03 09:48:48;;;;;;;4.50;4.10;;;;;;;27.13;36.71;97630.59;4918135;29;20529;-80
2021/09/03 09:51:19;;;;;;;4.40;4.00;;;;;;;26.45;38.30;97610.78;4950874;29;20037;-79
2021/09/03 09:53:58;;;;;;;5.20;4.55;;;;;;;26.62;38.60;97623.09;4933390;29;20039;-79
2021/09/03 09:56:26;;;;;;;4.78;4.38;;;;;;;26.98;36.97;97616.06;4901905;29;20090;-79
2021/09/03 09:58:53;;;;;;;5.63;4.22;;;;;;;27.42;38.74;97626.00;4933177;29;20066;-79
2021/09/03 10:01:19;;;;;;;4.68;4.28;;;;;;;27.52;37.83;97624.69;4916826;29;20043;-79
2021/09/03 10:03:47;;;;;;;6.88;4.25;;;;;;;27.68;37.66;97622.03;4907196;29;20073;-79
2021/09/03 10:06:15;;;;;;;4.70;4.25;;;;;;;27.96;37.16;97608.56;4920967;29;20040;-80
2021/09/03 10:08:42;;;;;;;4.55;4.15;;;;;;;27.97;36.64;97610.13;4898722;29;20518;-80
2021/09/03 10:11:07;;;;;;;6.70;5.15;;;;;;;27.68;34.92;97601.41;4882817;29;20038;-79
2021/09/03 10:13:33;;;;;;;5.60;4.60;;;;;;;28.00;36.91;97607.53;4895016;29;20040;-78
2021/09/03 10:15:58;;;;;;;4.40;4.00;;;;;;;27.79;36.32;97615.78;4902944;29;20290;-79
2021/09/03 10:18:24;;;;;;;5.28;4.35;;;;;;;28.05;34.97;97606.44;4936849;29;20054;-80
2021/09/03 10:20:49;;;;;;;5.22;4.72;;;;;;;28.24;35.91;97612.97;4905382;29;20023;-79
2021/09/03 10:23:46;;;;;;;5.00;4.55;;;;;;;28.07;35.99;97617.63;4919766;29;20039;-79
2021/09/03 10:26:12;;;;;;;4.75;4.35;;;;;;;28.49;34.56;97611.59;4896385;29;20031;-80
2021/09/03 10:28:38;;;;;;;6.22;4.07;;;;;;;28.44;32.40;97613.78;4921451;29;20042;-81
2021/09/03 10:31:04;;;;;;;5.28;4.47;;;;;;;28.29;33.21;97610.03;4936843;29;20042;-80
2021/09/03 10:33:38;;;;;;;5.13;4.53;;;;;;;28.28;32.30;97603.91;4922034;29;20031;-80
2021/09/03 10:36:04;;;;;;;6.65;4.65;;;;;;;28.36;31.96;97607.50;4903966;29;20422;-80
2021/09/03 10:38:32;;;;;;;5.47;4.97;;;;;;;28.62;34.67;97595.41;4914101;29;20035;-79
2021/09/03 10:40:59;;;;;;;4.63;4.20;;;;;;;28.26;33.01;97595.44;4923476;29;20083;-79
2021/09/03 10:43:45;;;;;;;6.40;4.57;;;;;;;27.83;34.57;97602.50;4939394;29;20039;-79
2021/09/03 10:46:12;;;;;;;5.35;4.72;;;;;;;28.45;33.56;97600.03;4922257;29;20474;-79
2021/09/03 10:48:38;;;;;;;4.90;4.40;;;;;;;28.41;33.80;97593.81;4919533;28;20035;-78
2021/09/03 10:51:04;;;;;;;4.22;3.83;;;;;;;28.42;33.71;97597.28;4900008;29;20027;-79
2021/09/03 10:53:37;;;;;;;4.65;4.25;;;;;;;28.44;35.01;97595.03;4921268;29;20035;-79
2021/09/03 10:56:17;;;;;;;5.35;4.18;;;;;;;28.37;32.56;97587.63;4922201;29;20031;-81
2021/09/03 10:58:51;;;;;;;5.53;4.60;;;;;;;28.32;32.80;97590.59;4906568;29;20390;-80
2021/09/03 11:01:26;;;;;;;4.80;4.40;;;;;;;28.38;33.37;97586.50;4918889;29;20043;-80
2021/09/03 11:03:54;;;;;;;5.15;4.20;;;;;;;28.67;33.33;97582.53;4921621;29;20154;-80
2021/09/03 11:06:23;;;;;;;4.88;4.28;;;;;;;29.07;32.63;97580.56;4920140;29;20479;-80
2021/09/03 11:08:49;;;;;;;5.60;4.85;;;;;;;29.25;32.45;97570.16;4918320;29;20194;-79
2021/09/03 11:11:37;;;;;;;5.15;4.70;;;;;;;29.45;31.96;97576.22;4917339;29;20032;-80
2021/09/03 11:14:09;;;;;;;4.88;4.38;;;;;;;29.61;30.61;97576.88;4902213;29;20057;-79
2021/09/03 11:16:39;;;;;;;5.05;4.65;;;;;;;30.00;31.48;97570.53;4918298;29;20031;-79
2021/09/03 11:19:15;;;;;;;4.75;4.32;;;;;;;30.01;31.22;97561.34;4935090;29;20119;-79
2021/09/03 11:21:50;;;;;;;4.40;4.00;;;;;;;30.20;28.61;97568.50;4886070;29;20070;-80
2021/09/03 11:24:23;;;;;;;5.45;4.20;;;;;;;30.41;30.29;97574.16;4917435;29;20054;-80
2021/09/03 11:26:51;;;;;;;4.70;4.30;;;;;;;30.15;30.35;97561.53;4886774;29;20023;-80
2021/09/03 11:29:26;;;;;;;5.10;4.63;;;;;;;30.34;30.77;97565.22;4901963;29;20491;-78